createdAt,value
2019-05-10T00:01:45.222Z,13.77
2019-05-10T00:04:31.915Z,13.17
2019-05-10T00:07:18.859Z,13.43
2019-05-10T00:09:46.789Z,12.07
2019-05-10T00:12:19.951Z,13.10
2019-05-10T00:14:50.510Z,12.40
2019-05-10T00:17:19.750Z,13.43
2019-05-10T00:19:48.489Z,13.13
2019-05-10T00:22:17.587Z,13.57
2019-05-10T00:25:02.013Z,13.63
2019-05-10T00:27:16.873Z,14.33
2019-05-10T00:29:46.148Z,13.57
2019-05-10T00:32:14.903Z,13.27
2019-05-10T00:34:43.632Z,13.80
2019-05-10T00:37:12.620Z,14.60
2019-05-10T00:39:41.368Z,14.37
2019-05-10T00:42:10.095Z,14.60
2019-05-10T00:44:39.058Z,14.97
2019-05-10T00:47:07.796Z,14.70
2019-05-10T00:49:36.529Z,14.03
2019-05-10T00:52:06.392Z,14.80
2019-05-10T00:54:35.127Z,14.20
2019-05-10T00:57:03.867Z,14.60
2019-05-10T00:59:32.646Z,13.90
2019-05-10T01:02:01.471Z,13.77
2019-05-10T01:04:30.214Z,14.40
2019-05-10T01:06:59.104Z,15.27
2019-05-10T01:09:27.853Z,15.90
2019-05-10T01:11:56.605Z,15.93
2019-05-10T01:14:25.479Z,16.33
2019-05-10T01:16:54.223Z,15.93
2019-05-10T01:19:22.999Z,15.90
2019-05-10T01:21:51.858Z,16.37
2019-05-10T01:24:20.595Z,15.30
2019-05-10T01:26:49.326Z,16.00
2019-05-10T01:29:18.193Z,16.77
2019-05-10T01:31:46.961Z,15.77
2019-05-10T01:34:15.689Z,15.10
2019-05-10T01:36:44.631Z,14.90
2019-05-10T01:39:13.390Z,14.23
2019-05-10T01:41:42.133Z,14.27
2019-05-10T01:44:10.920Z,13.60
2019-05-10T01:46:39.665Z,14.67
2019-05-10T01:49:08.408Z,13.00
2019-05-10T01:51:37.277Z,14.03
2019-05-10T01:54:06.169Z,13.17
2019-05-10T01:56:34.909Z,13.00
2019-05-10T01:59:03.681Z,14.87
2019-05-10T02:01:32.418Z,13.63
2019-05-10T02:04:01.158Z,14.57
2019-05-10T02:06:30.039Z,14.90
2019-05-10T02:08:58.784Z,13.67
2019-05-10T02:11:27.569Z,14.10
2019-05-10T02:13:56.508Z,14.43
2019-05-10T02:16:25.225Z,14.20
2019-05-10T02:18:53.961Z,14.33
2019-05-10T02:21:22.777Z,14.33
2019-05-10T02:23:51.511Z,14.97
2019-05-10T02:26:20.247Z,14.63
2019-05-10T02:28:49.111Z,14.37
2019-05-10T02:31:21.402Z,14.47
2019-05-10T02:33:48.518Z,14.83
2019-05-10T02:36:17.695Z,15.17
2019-05-10T02:38:46.441Z,15.43
2019-05-10T02:41:15.165Z,14.83
2019-05-10T02:43:43.972Z,15.40
2019-05-10T02:46:12.706Z,14.97
2019-05-10T02:48:41.470Z,14.83
2019-05-10T02:51:10.358Z,15.33
2019-05-10T02:53:39.608Z,15.60
2019-05-10T02:56:29.049Z,15.97
2019-05-10T02:58:45.253Z,18.73
2019-05-10T03:01:16.446Z,20.10
2019-05-10T03:03:45.295Z,43.63
2019-05-10T03:06:15.857Z,41.60
2019-05-10T03:08:52.778Z,32.20
2019-05-10T03:11:21.590Z,23.57
2019-05-10T03:13:52.393Z,20.50
2019-05-10T03:16:23.318Z,18.97
2019-05-10T03:18:53.610Z,20.57
2019-05-10T03:21:24.511Z,21.17
2019-05-10T03:23:53.507Z,24.83
2019-05-10T03:26:22.490Z,23.10
2019-05-10T03:28:51.217Z,23.73
2019-05-10T03:31:20.073Z,23.27
2019-05-10T03:33:55.709Z,22.97
2019-05-10T03:36:19.408Z,23.40
2019-05-10T03:38:48.721Z,22.60
2019-05-10T03:41:17.682Z,23.27
2019-05-10T03:43:46.409Z,22.00
2019-05-10T03:46:15.140Z,22.73
2019-05-10T03:48:44.191Z,22.53
2019-05-10T03:51:12.926Z,23.97
2019-05-10T03:53:41.646Z,23.63
2019-05-10T03:56:10.469Z,24.03
2019-05-10T03:58:39.217Z,24.83
2019-05-10T04:01:07.972Z,28.10
2019-05-10T04:03:36.869Z,34.80
2019-05-10T04:06:05.595Z,29.70
2019-05-10T04:08:34.334Z,29.60
2019-05-10T04:11:03.208Z,28.73
2019-05-10T04:13:32.000Z,30.67
2019-05-10T04:16:00.732Z,29.90
2019-05-10T04:18:29.520Z,29.97
2019-05-10T04:20:58.265Z,30.13
2019-05-10T04:23:27.011Z,35.13
2019-05-10T04:25:55.866Z,33.90
2019-05-10T04:28:24.601Z,38.47
2019-05-10T04:30:53.334Z,33.20
2019-05-10T04:33:22.149Z,30.43
2019-05-10T04:35:50.899Z,28.90
2019-05-10T04:38:19.646Z,26.17
2019-05-10T04:40:48.628Z,28.27
2019-05-10T04:43:17.368Z,24.73
2019-05-10T04:45:46.111Z,25.13
2019-05-10T04:48:15.120Z,29.57
2019-05-10T04:50:43.849Z,30.03
2019-05-10T04:53:12.438Z,26.37
2019-05-10T04:55:41.204Z,28.33
2019-05-10T04:58:09.954Z,28.17
2019-05-10T05:00:38.886Z,31.63
2019-05-10T05:03:07.859Z,31.43
2019-05-10T05:05:36.584Z,31.10
2019-05-10T05:08:06.382Z,31.83
2019-05-10T05:10:35.381Z,32.73
2019-05-10T05:13:04.108Z,31.67
2019-05-10T05:15:32.840Z,32.13
2019-05-10T05:18:01.812Z,32.73
2019-05-10T05:20:30.551Z,32.33
2019-05-10T05:22:59.296Z,31.43
2019-05-10T05:25:28.161Z,31.97
2019-05-10T05:28:07.491Z,29.53
2019-05-10T05:30:27.362Z,28.17
2019-05-10T05:32:57.071Z,28.60
2019-05-10T05:35:25.962Z,26.57
2019-05-10T05:37:54.687Z,26.97
2019-05-10T05:40:23.458Z,27.40
2019-05-10T05:42:52.185Z,28.27
2019-05-10T05:45:20.921Z,27.90
2019-05-10T05:47:49.820Z,25.50
2019-05-10T05:50:18.545Z,25.87
2019-05-10T05:52:47.301Z,27.27
2019-05-10T05:55:16.182Z,27.13
2019-05-10T05:57:44.924Z,29.13
2019-05-10T06:00:13.962Z,27.63
2019-05-10T06:02:44.939Z,26.33
2019-05-10T06:05:13.395Z,27.03
2019-05-10T06:07:42.121Z,22.37
2019-05-10T06:10:17.112Z,18.90
2019-05-10T06:12:44.455Z,17.97
2019-05-10T06:15:12.093Z,16.50
2019-05-10T06:17:40.961Z,16.13
2019-05-10T06:20:09.929Z,14.33
2019-05-10T06:22:43.854Z,15.17
2019-05-10T06:25:09.384Z,12.83
2019-05-10T06:27:43.238Z,11.83
2019-05-10T06:30:12.531Z,12.17
2019-05-10T06:32:41.334Z,11.77
2019-05-10T06:35:14.106Z,11.50
2019-05-10T06:37:40.920Z,12.00
2019-05-10T06:40:09.899Z,11.50
2019-05-10T06:42:38.626Z,12.00
2019-05-10T06:45:14.512Z,11.80
2019-05-10T06:47:41.990Z,10.90
2019-05-10T06:50:09.540Z,14.97
2019-05-10T06:52:38.272Z,14.00
2019-05-10T06:55:08.943Z,9.53
2019-05-10T06:57:37.668Z,9.67
2019-05-10T07:00:08.237Z,9.70
2019-05-10T07:02:37.301Z,9.13
2019-05-10T07:05:06.868Z,10.17
2019-05-10T07:07:44.252Z,9.53
2019-05-10T07:10:15.751Z,8.90
2019-05-10T07:12:38.572Z,9.53
2019-05-10T07:15:08.896Z,9.73
2019-05-10T07:17:45.460Z,9.40
2019-05-10T07:20:08.726Z,10.10
2019-05-10T07:22:37.454Z,10.00
2019-05-10T07:25:07.766Z,8.70
2019-05-10T07:27:38.504Z,9.90
2019-05-10T07:30:07.531Z,9.60
2019-05-10T07:32:37.127Z,9.43
2019-05-10T07:35:07.615Z,9.67
2019-05-10T07:37:36.336Z,9.60
2019-05-10T07:40:07.210Z,9.73
2019-05-10T07:42:39.909Z,9.47
2019-05-10T07:45:09.383Z,9.93
2019-05-10T07:47:38.782Z,10.13
2019-05-10T07:50:09.838Z,10.90
2019-05-10T07:52:43.636Z,10.93
2019-05-10T07:55:10.584Z,10.83
2019-05-10T07:57:39.551Z,10.67
2019-05-10T08:00:08.499Z,10.93
2019-05-10T08:02:37.308Z,9.87
2019-05-10T08:05:11.096Z,10.60
2019-05-10T08:07:38.737Z,10.17
2019-05-10T08:10:08.891Z,10.37
2019-05-10T08:12:41.481Z,10.27
2019-05-10T08:15:09.340Z,10.87
2019-05-10T08:17:43.760Z,10.07
2019-05-10T08:20:20.387Z,9.73
2019-05-10T08:22:44.494Z,9.30
2019-05-10T08:25:12.748Z,9.17
2019-05-10T08:27:44.035Z,7.43
2019-05-10T08:30:27.954Z,8.40
2019-05-10T08:32:44.579Z,6.77
2019-05-10T08:35:17.093Z,6.27
2019-05-10T08:37:43.950Z,5.90
2019-05-10T08:40:13.408Z,5.77
2019-05-10T08:42:48.174Z,6.07
2019-05-10T08:45:12.759Z,5.87
2019-05-10T08:47:42.664Z,5.10
2019-05-10T08:50:29.189Z,3.53
2019-05-10T08:52:42.618Z,2.30
2019-05-10T08:55:12.332Z,2.10
2019-05-10T08:57:44.236Z,2.30
2019-05-10T09:00:13.007Z,2.07
2019-05-10T09:02:42.805Z,1.97
2019-05-10T09:05:12.607Z,3.00
2019-05-10T09:07:44.981Z,1.80
2019-05-10T09:10:12.923Z,2.20
2019-05-10T09:12:50.659Z,1.93
2019-05-10T09:15:13.454Z,2.10
2019-05-10T09:17:43.169Z,2.00
2019-05-10T09:20:20.837Z,1.87
2019-05-10T09:22:42.670Z,1.90
2019-05-10T09:25:12.895Z,1.80
2019-05-10T09:27:43.201Z,1.80
2019-05-10T09:30:15.518Z,1.97
2019-05-10T09:32:43.655Z,1.70
2019-05-10T09:35:12.974Z,1.30
2019-05-10T09:37:42.325Z,1.30
2019-05-10T09:40:13.443Z,1.50
2019-05-10T09:42:43.629Z,1.40
2019-05-10T09:45:13.002Z,1.43
2019-05-10T09:47:43.511Z,1.27
2019-05-10T09:50:12.947Z,1.37
2019-05-10T09:52:54.068Z,1.50
2019-05-10T09:55:22.795Z,1.47
2019-05-10T09:57:51.525Z,1.60
2019-05-10T10:00:30.239Z,1.60
2019-05-10T10:03:01.573Z,1.63
2019-05-10T10:05:28.689Z,1.70
2019-05-10T10:07:57.881Z,1.60
2019-05-10T10:10:31.903Z,1.83
2019-05-10T10:12:58.315Z,1.80
2019-05-10T10:15:33.535Z,1.67
2019-05-10T10:17:58.321Z,1.73
2019-05-10T10:20:29.768Z,1.47
2019-05-10T10:22:57.874Z,2.00
2019-05-10T10:25:29.800Z,1.30
2019-05-10T10:27:57.488Z,1.27
2019-05-10T10:30:27.545Z,1.17
2019-05-10T10:32:58.103Z,1.30
2019-05-10T10:35:29.793Z,1.00
2019-05-10T10:38:02.979Z,0.97
2019-05-10T10:40:28.726Z,0.90
2019-05-10T10:42:57.829Z,1.10
2019-05-10T10:45:27.672Z,1.20
2019-05-10T10:47:57.320Z,0.80
2019-05-10T10:50:27.613Z,0.70
2019-05-10T10:52:57.547Z,0.70
2019-05-10T10:55:30.882Z,0.90
2019-05-10T10:57:57.759Z,0.80
2019-05-10T11:00:34.694Z,1.20
2019-05-10T11:03:05.207Z,0.80
2019-05-10T11:05:33.952Z,0.80
2019-05-10T11:08:02.718Z,0.90
2019-05-10T11:10:32.538Z,0.73
2019-05-10T11:13:07.983Z,0.70
2019-05-10T11:15:35.912Z,0.70
2019-05-10T11:18:02.672Z,0.80
2019-05-10T11:20:31.870Z,0.60
2019-05-10T11:23:00.826Z,0.50
2019-05-10T11:25:29.543Z,0.50
2019-05-10T11:28:01.392Z,0.60
2019-05-10T11:30:28.831Z,0.60
2019-05-10T11:32:57.550Z,0.70
2019-05-10T11:35:31.096Z,0.70
2019-05-10T11:37:56.807Z,0.50
2019-05-10T11:40:30.685Z,0.70
2019-05-10T11:42:57.504Z,0.50
2019-05-10T11:45:32.203Z,0.70
2019-05-10T11:47:59.174Z,0.70
2019-05-10T11:50:31.729Z,0.50
2019-05-10T11:52:57.730Z,0.70
2019-05-10T11:55:26.455Z,1.90
2019-05-10T12:00:31.938Z,32.53
2019-05-10T12:03:06.988Z,45.50
2019-05-10T12:05:27.026Z,2.60
2019-05-10T12:07:55.858Z,0.60
2019-05-10T12:10:25.642Z,0.60
2019-05-10T12:13:08.511Z,0.57
2019-05-10T12:15:26.180Z,0.60
2019-05-10T12:17:59.172Z,0.73
2019-05-10T12:20:38.945Z,0.60
2019-05-10T12:23:02.943Z,0.57
2019-05-10T12:25:47.220Z,0.80
2019-05-10T12:26:04.744Z,18.60
2019-05-10T12:28:01.273Z,0.80
2019-05-10T12:30:34.857Z,0.83
2019-05-10T12:33:08.855Z,0.77
2019-05-10T12:35:35.580Z,0.60
2019-05-10T12:38:01.739Z,0.70
2019-05-10T12:40:31.420Z,0.60
2019-05-10T12:43:00.682Z,0.60
2019-05-10T12:45:31.348Z,0.80
2019-05-10T12:48:01.283Z,0.70
2019-05-10T12:50:30.262Z,0.70
2019-05-10T12:53:12.623Z,0.80
2019-05-10T12:55:29.722Z,0.77
2019-05-10T12:57:58.469Z,0.80
2019-05-10T13:00:27.403Z,0.60
2019-05-10T13:03:11.621Z,0.50
2019-05-10T13:05:31.864Z,0.70
2019-05-10T13:07:57.160Z,0.90
2019-05-10T13:10:26.033Z,0.80
2019-05-10T13:12:54.787Z,0.90
2019-05-10T13:15:24.690Z,0.70
2019-05-10T13:17:54.243Z,0.80
2019-05-10T13:20:23.020Z,0.90
2019-05-10T13:22:51.886Z,0.90
2019-05-10T13:25:20.628Z,0.90
2019-05-10T13:27:50.945Z,0.87
2019-05-10T13:30:27.029Z,0.83
2019-05-10T13:32:53.096Z,0.83
2019-05-10T13:35:20.690Z,1.10
2019-05-10T13:37:49.495Z,0.80
2019-05-10T13:40:18.224Z,0.80
2019-05-10T13:42:46.939Z,1.00
2019-05-10T13:45:15.900Z,1.30
2019-05-10T13:47:44.624Z,0.90
2019-05-10T13:50:15.049Z,0.50
2019-05-10T13:52:44.376Z,0.70
2019-05-10T13:55:13.102Z,0.90
2019-05-10T13:57:41.844Z,1.00
2019-05-10T14:00:11.366Z,0.90
2019-05-10T14:02:40.097Z,1.13
2019-05-10T14:05:11.856Z,0.90
2019-05-10T14:07:39.501Z,1.00
2019-05-10T14:10:09.260Z,0.80
2019-05-10T14:12:37.979Z,1.03
2019-05-10T14:15:11.301Z,0.87
2019-05-10T14:17:38.627Z,1.00
2019-05-10T14:20:19.723Z,0.63
2019-05-10T14:22:39.212Z,0.80
2019-05-10T14:25:09.142Z,0.70
2019-05-10T14:27:38.600Z,0.90
2019-05-10T14:30:13.702Z,0.70
2019-05-10T14:32:39.932Z,0.60
2019-05-10T14:35:11.524Z,0.63
2019-05-10T14:37:42.964Z,1.20
2019-05-10T14:40:17.044Z,0.63
2019-05-10T14:42:42.136Z,0.70
2019-05-10T14:45:11.234Z,0.70
2019-05-10T14:47:47.584Z,0.70
2019-05-10T14:50:13.283Z,0.50
2019-05-10T14:52:42.052Z,0.57
2019-05-10T14:55:12.920Z,0.90
2019-05-10T14:57:41.319Z,0.80
2019-05-10T15:00:10.447Z,0.60
2019-05-10T15:02:39.214Z,0.70
2019-05-10T15:05:16.127Z,2.30
2019-05-10T15:07:38.615Z,0.70
2019-05-10T15:10:07.571Z,0.60
2019-05-10T15:12:36.279Z,0.60
2019-05-10T15:15:06.239Z,0.60
2019-05-10T15:17:34.961Z,0.80
2019-05-10T15:20:05.460Z,0.60
2019-05-10T15:22:34.330Z,0.50
2019-05-10T15:25:03.039Z,0.90
2019-05-10T15:27:31.772Z,0.90
2019-05-10T15:30:05.172Z,0.73
2019-05-10T15:32:30.981Z,0.87
2019-05-10T15:35:08.397Z,0.60
2019-05-10T15:37:30.317Z,1.63
2019-05-10T15:40:00.621Z,1.00
2019-05-10T15:42:30.449Z,0.70
2019-05-10T15:45:05.190Z,0.80
2019-05-10T15:47:30.726Z,0.90
2019-05-10T15:50:01.279Z,0.93
2019-05-10T15:52:29.985Z,0.80
2019-05-10T15:54:58.705Z,0.60
2019-05-10T15:57:27.484Z,0.70
2019-05-10T15:59:58.942Z,0.60
2019-05-10T16:02:26.804Z,0.60
2019-05-10T16:04:55.526Z,0.60
2019-05-10T16:07:24.320Z,0.70
2019-05-10T16:09:54.704Z,0.60
2019-05-10T16:12:23.490Z,0.97
2019-05-10T16:14:52.450Z,1.00
2019-05-10T16:17:23.970Z,0.67
2019-05-10T16:19:59.717Z,0.53
2019-05-10T16:22:25.397Z,0.70
2019-05-10T16:24:52.725Z,2.43
2019-05-10T16:27:21.546Z,2.10
2019-05-10T16:29:50.428Z,1.33
2019-05-10T16:32:19.232Z,1.20
2019-05-10T16:34:47.954Z,1.03
2019-05-10T16:37:16.904Z,1.00
2019-05-10T16:39:45.625Z,1.47
2019-05-10T16:42:14.446Z,1.10
2019-05-10T16:44:43.363Z,1.83
2019-05-10T16:47:12.092Z,1.30
2019-05-10T16:49:40.828Z,0.90
2019-05-10T16:52:09.693Z,0.90
2019-05-10T16:54:38.418Z,2.20
2019-05-10T16:57:07.155Z,1.30
2019-05-10T16:59:36.017Z,1.60
2019-05-10T17:02:06.514Z,1.50
2019-05-10T17:04:37.913Z,2.17
2019-05-10T17:07:05.975Z,3.63
2019-05-10T17:09:34.699Z,2.60
2019-05-10T17:12:03.427Z,1.40
2019-05-10T17:14:32.297Z,1.53
2019-05-10T17:17:01.019Z,1.23
2019-05-10T17:19:46.859Z,1.60
2019-05-10T17:22:05.625Z,1.60
2019-05-10T17:24:34.354Z,2.30
2019-05-10T17:27:03.139Z,2.23
2019-05-10T17:29:32.100Z,1.83
2019-05-10T17:32:00.829Z,2.23
2019-05-10T17:34:29.819Z,2.00
2019-05-10T17:36:59.846Z,1.70
2019-05-10T17:39:32.071Z,1.63
2019-05-10T17:42:03.148Z,1.40
2019-05-10T17:44:29.737Z,1.50
2019-05-10T17:46:59.626Z,1.40
2019-05-10T17:49:28.363Z,2.10
2019-05-10T17:51:57.226Z,2.73
2019-05-10T17:54:25.956Z,2.00
2019-05-10T17:56:54.678Z,2.20
2019-05-10T17:59:23.637Z,1.60
2019-05-10T18:01:52.404Z,1.40
2019-05-10T18:04:21.163Z,1.50
2019-05-10T18:06:49.942Z,3.93
2019-05-10T18:09:18.722Z,4.17
2019-05-10T18:11:47.457Z,5.07
2019-05-10T18:14:19.804Z,4.77
2019-05-10T18:16:50.177Z,3.17
2019-05-10T18:19:24.453Z,5.33
2019-05-10T18:21:54.825Z,2.70
2019-05-10T18:24:21.988Z,2.90
2019-05-10T18:26:50.731Z,4.40
2019-05-10T18:29:20.120Z,4.77
2019-05-10T18:31:56.346Z,3.60
2019-05-10T18:34:19.401Z,4.00
2019-05-10T18:36:51.406Z,3.00
2019-05-10T18:39:18.667Z,3.73
2019-05-10T18:41:48.132Z,2.37
2019-05-10T18:44:17.007Z,1.90
2019-05-10T18:46:47.219Z,2.10
2019-05-10T18:49:15.971Z,2.07
2019-05-10T18:51:44.731Z,2.10
2019-05-10T18:54:15.534Z,3.20
2019-05-10T18:56:43.951Z,5.57
2019-05-10T18:59:12.787Z,3.77
2019-05-10T19:01:42.838Z,4.40
2019-05-10T19:04:13.998Z,3.97
2019-05-10T19:06:44.019Z,4.53
2019-05-10T19:09:12.650Z,3.50
2019-05-10T19:11:41.531Z,2.50
2019-05-10T19:14:10.430Z,4.50
2019-05-10T19:16:39.125Z,3.97
2019-05-10T19:19:07.842Z,4.03
2019-05-10T19:21:37.945Z,4.30
2019-05-10T19:24:07.021Z,2.83
2019-05-10T19:26:35.740Z,4.53
2019-05-10T19:29:06.527Z,3.57
2019-05-10T19:31:38.059Z,3.57
2019-05-10T19:34:08.984Z,4.87
2019-05-10T19:36:36.639Z,4.97
2019-05-10T19:39:07.059Z,5.10
2019-05-10T19:41:35.795Z,5.27
2019-05-10T19:44:04.828Z,5.53
2019-05-10T19:46:39.302Z,4.50
2019-05-10T19:49:07.700Z,2.80
2019-05-10T19:51:35.599Z,2.60
2019-05-10T19:54:07.272Z,2.40
2019-05-10T19:56:38.608Z,2.60
2019-05-10T19:59:11.754Z,2.97
2019-05-10T20:01:36.953Z,2.73
2019-05-10T20:04:09.155Z,2.80
2019-05-10T20:06:36.439Z,3.00
2019-05-10T20:09:07.931Z,2.77
2019-05-10T20:11:36.660Z,2.50
2019-05-10T20:14:07.609Z,2.20
2019-05-10T20:16:51.379Z,2.17
2019-05-10T20:19:09.267Z,2.37
2019-05-10T20:21:37.031Z,2.30
2019-05-10T20:24:05.746Z,2.30
2019-05-10T20:26:34.463Z,2.40
2019-05-10T20:29:03.311Z,2.10
2019-05-10T20:31:32.031Z,2.10
2019-05-10T20:34:00.777Z,2.00
2019-05-10T20:36:29.899Z,2.23
2019-05-10T20:39:00.840Z,2.60
2019-05-10T20:41:29.111Z,2.57
2019-05-10T20:43:57.917Z,3.00
2019-05-10T20:46:26.633Z,3.03
2019-05-10T20:48:55.366Z,2.70
2019-05-10T20:51:25.878Z,2.33
2019-05-10T20:53:54.617Z,2.73
2019-05-10T20:56:23.345Z,2.80
2019-05-10T20:58:52.214Z,2.80
2019-05-10T21:01:20.951Z,2.80
2019-05-10T21:03:49.687Z,3.00
2019-05-10T21:06:18.420Z,3.23
2019-05-10T21:08:47.137Z,2.70
2019-05-10T21:11:16.941Z,3.20
2019-05-10T21:13:45.802Z,3.30
2019-05-10T21:16:14.523Z,3.00
2019-05-10T21:18:43.258Z,2.47
2019-05-10T21:21:12.134Z,2.53
2019-05-10T21:23:40.934Z,2.20
2019-05-10T21:26:09.660Z,2.30
2019-05-10T21:28:38.538Z,2.70
2019-05-10T21:31:07.232Z,2.50
2019-05-10T21:33:35.962Z,2.13
2019-05-10T21:36:04.744Z,2.13
2019-05-10T21:38:33.700Z,2.20
2019-05-10T21:41:02.466Z,2.20
2019-05-10T21:43:31.319Z,2.50
2019-05-10T21:46:00.044Z,2.47
2019-05-10T21:48:28.963Z,2.20
2019-05-10T21:50:57.855Z,2.60
2019-05-10T21:53:26.655Z,2.83
2019-05-10T21:55:55.379Z,3.03
2019-05-10T21:58:24.257Z,3.10
2019-05-10T22:00:53.377Z,3.00
2019-05-10T22:03:22.091Z,3.20
2019-05-10T22:05:50.960Z,2.87
2019-05-10T22:08:19.692Z,3.03
2019-05-10T22:10:48.399Z,3.03
2019-05-10T22:13:17.502Z,2.90
2019-05-10T22:15:46.224Z,3.73
2019-05-10T22:18:14.948Z,3.20
2019-05-10T22:20:43.779Z,3.13
2019-05-10T22:23:12.509Z,3.27
2019-05-10T22:25:41.225Z,3.37
2019-05-10T22:28:10.187Z,3.27
2019-05-10T22:30:39.106Z,3.30
2019-05-10T22:33:07.821Z,2.93
2019-05-10T22:35:36.704Z,3.40
2019-05-10T22:38:05.632Z,3.40
2019-05-10T22:40:34.411Z,3.13
2019-05-10T22:43:03.413Z,3.00
2019-05-10T22:45:32.124Z,3.37
2019-05-10T22:48:00.850Z,3.53
2019-05-10T22:50:29.627Z,3.10
2019-05-10T22:52:58.362Z,3.63
2019-05-10T22:55:27.073Z,3.40
2019-05-10T22:57:55.857Z,3.20
2019-05-10T23:00:24.782Z,3.27
2019-05-10T23:02:53.498Z,3.33
2019-05-10T23:05:22.381Z,3.70
2019-05-10T23:07:51.098Z,3.13
2019-05-10T23:10:19.824Z,3.83
2019-05-10T23:12:48.693Z,3.13
2019-05-10T23:15:17.418Z,3.30
2019-05-10T23:17:46.142Z,3.13
2019-05-10T23:20:15.448Z,4.33
2019-05-10T23:22:44.162Z,3.60
2019-05-10T23:25:12.891Z,3.57
2019-05-10T23:27:41.845Z,3.33
2019-05-10T23:30:10.671Z,3.33
2019-05-10T23:32:39.482Z,3.53
2019-05-10T23:35:09.325Z,3.67
2019-05-10T23:37:38.132Z,3.90
2019-05-10T23:40:07.429Z,3.60
2019-05-10T23:42:36.428Z,3.60
2019-05-10T23:45:06.850Z,3.97
2019-05-10T23:47:35.656Z,3.67
2019-05-10T23:50:04.927Z,3.70
2019-05-10T23:52:33.729Z,4.07
2019-05-10T23:55:02.539Z,4.40
2019-05-10T23:57:31.404Z,3.70
